Asheville Regional Airport
KAVL : now visible

Airfield :











YOU CAN JOIN US ON...

 
LOGIN :

Register | Disclaimer

   EN    FR    IT 

 









Legend :    VFR   Marginal VFR   IFR   Intensive IFR   Very Intensive IFR
Visi :
Ceiling :
>= 8 km
>= 3000ft
5 to 8 km
1000 to 3000 ft
1500m to 5 km
500 to 1000 ft
800 to 1500m
200 to 500 ft
< 800m
< 200 ft
Symbols :   Thunderstorms  Fog  Heavy snow  Heavy precipitations  Wind > 20 kt







- Airport Elevation : 2165 ft
- IATA code : AVL


KAVL - Asheville Regional

CURRENT METAR :
  • 210703Z AUTO 00000KT 9SM -RA BKN002 BKN008 OVC100 06/05 A3005 RMK AO2 P0000 T00610050

EXPIRED METARs :
  • 210654Z AUTO 00000KT 8SM -RA SCT002 BKN008 OVC110 06/04 A3006 RMK AO2 RAB35 SLP182 P0000 T00560044
  • 210554Z AUTO 00000KT 9SM OVC005 05/04 A3006 RMK AO2 RAE36 CIG 003V007 SLP183 P0001 60030 T00500044 10050 20033 58014
  • 210532Z AUTO 00000KT 9SM -RA SCT002 OVC007 05/04 A3008 RMK AO2 P0001 T00500039
  • 210511Z AUTO 00000KT 10SM -RA BKN003 OVC100 04/04 A3009 RMK AO2 LTG DSNT SE CIG 002V019 P0000 T00440039
  • 210454Z AUTO 17005KT 10SM -RA FEW003 SCT075 OVC100 05/03 A3007 RMK AO2 LTG DSNT SE AND S RAB07 SLP187 P0004 T00500033 400500006
  • 210441Z AUTO 00000KT 10SM -RA SCT005 BKN050 OVC110 05/04 A3007 RMK AO2 LTG DSNT SE AND S RAB07 P0003 T00500039
  • 210429Z AUTO VRB03KT 7SM -RA BKN006 BKN048 OVC080 04/03 A3009 RMK AO2 LTG DSNT S RAB07 P0003 T00440033
  • 210414Z AUTO 20003KT 7SM VCTS RA BKN008 OVC047 04/03 A3012 RMK AO2 LTG DSNT S RAB07 P0001 T00440033

TAF KAVL
Valid from the 21 at 06:00 until the 22 at 06:00 UTC


210540Z 2106/2206 18004KT 6SM -SHRA VCTS OVC003CB
FM211200 31004KT 4SM -SHRA BR OVC009
FM211500 33005KT 4SM -SHRA BR OVC010
FM212200 33007KT P6SM OVC007
FM220300 34004KT 3SM -SHRA BR OVC003
KZTL FIR / North America



MET'MAP, your aeronautical weather chart ! - Copyright ORBIFLY December 2007 - Disclaimer

ORBIFLY MET'MAP TEAM :

Programming & Development : Alexandra Zaïnal
Concept & Development : Baudouin d'Aumeries
Co-Development & Prog : Marc-Olivier Méhu
Technical & hardware support : Manuel Goepfert

Contact : metmap@orbifly.com




SOURCES & CREDITS :

   NOAA       Earth
Advisory